Portada
METAR-TAF:

METAR-TAF

Aeroports :

Ciutat del Cap, Sud-àfrica

latitud: 33-59S, longitud: 018-36E, altitud: 42 m

Observació

L'informe es va fer fa 47 minuts, a les 01:00 UTC
Vent 7 kt del Sud
Temperatura 16°C
Humitat 72%
Pressió 1015 hPa
Visibilitat 10 km o més
sense núvols per sota de 1500 mi sense presència de cumulonimbus.

METAR: FACT 060100Z 18007KT CAVOK 16/11 Q1015 NOSIG

Hora: 03:47 (01:47 UTC)

Pronòstic

L'informe es va fer fa 3 hores i 47 minuts, a les 22:00 UTC
Pronòstic vàlid del 06 a les 00 UTC al 07 a les 06 UTC
Vent 5 kt del Sud
Visibilitat 10 km o més
Escasses núvols a una alçada de 4000 ft
Evolucionant progressivament
l' 06 a les 10 UTC al 06 a les 12 UTC
Vent 15 kt del Sud
Evolucionant progressivament
l' 06 a les 18 UTC al 06 a les 20 UTC
Vent 5 kt del Sud

TAF: FACT 052200Z 0600/0706 17005KT 9999 FEW040 TX25/0612Z TN14/0603Z BECMG 0610/0612 19015KT BECMG 0618/0620 19005KT

Observacions i pronòstics meteorològics de més de 4000 aeroports (METAR i TAF).

Les estacions disponibles són els punts grocs i vermells al mapa.

Posi el ratolí al punt desitjat per veure el nom de l'estació.

Feu clic per veure les observacions i els pronòstics meteorològics.

Per canviar el mapa: feu clic els botons verds amb una creu de color negre per apropar; al botó verd amb un guió per allunyar la imatge; o en les fletxes verdes per a mapes adjacents.


METAR-TAF: